sensor_id;sensor_type;location;lat;lon;timestamp;P1;durP1;ratioP1;P2;durP2;ratioP2
31224;SDS011;17847;31.524;74.366;2022-10-31T00:01:14;235.50;;;146.70;;
31224;SDS011;17847;31.524;74.366;2022-10-31T00:04:02;228.48;;;142.82;;
31224;SDS011;17847;31.524;74.366;2022-10-31T00:06:52;239.05;;;144.80;;
31224;SDS011;17847;31.524;74.366;2022-10-31T00:09:34;248.05;;;144.32;;
31224;SDS011;17847;31.524;74.366;2022-10-31T00:12:23;234.13;;;141.52;;
31224;SDS011;17847;31.524;74.366;2022-10-31T00:15:06;218.63;;;139.05;;
31224;SDS011;17847;31.524;74.366;2022-10-31T00:17:55;226.50;;;142.40;;
31224;SDS011;17847;31.524;74.366;2022-10-31T00:20:37;226.85;;;138.70;;
31224;SDS011;17847;31.524;74.366;2022-10-31T00:23:34;223.32;;;137.52;;
31224;SDS011;17847;31.524;74.366;2022-10-31T00:26:09;220.63;;;136.05;;
31224;SDS011;17847;31.524;74.366;2022-10-31T00:29:06;222.23;;;137.13;;
31224;SDS011;17847;31.524;74.366;2022-10-31T00:31:54;223.68;;;137.02;;
31224;SDS011;17847;31.524;74.366;2022-10-31T00:34:37;232.85;;;135.23;;
31224;SDS011;17847;31.524;74.366;2022-10-31T00:37:26;215.98;;;134.15;;
31224;SDS011;17847;31.524;74.366;2022-10-31T00:40:09;220.63;;;135.63;;
31224;SDS011;17847;31.524;74.366;2022-10-31T00:42:59;214.63;;;133.75;;
31224;SDS011;17847;31.524;74.366;2022-10-31T00:45:42;224.20;;;137.50;;
31224;SDS011;17847;31.524;74.366;2022-10-31T00:48:31;212.02;;;134.80;;
31224;SDS011;17847;31.524;74.366;2022-10-31T00:51:13;205.35;;;131.98;;
31224;SDS011;17847;31.524;74.366;2022-10-31T00:54:09;222.02;;;133.88;;
31224;SDS011;17847;31.524;74.366;2022-10-31T00:56:52;205.93;;;131.98;;
31224;SDS011;17847;31.524;74.366;2022-10-31T00:59:40;213.00;;;134.30;;
31224;SDS011;17847;31.524;74.366;2022-10-31T01:02:22;203.07;;;130.02;;
31224;SDS011;17847;31.524;74.366;2022-10-31T01:05:18;209.75;;;133.20;;
31224;SDS011;17847;31.524;74.366;2022-10-31T01:08:01;224.40;;;133.32;;
31224;SDS011;17847;31.524;74.366;2022-10-31T01:11:00;217.43;;;134.30;;
31224;SDS011;17847;31.524;74.366;2022-10-31T01:13:47;210.68;;;132.63;;
31224;SDS011;17847;31.524;74.366;2022-10-31T01:16:39;214.50;;;133.20;;
31224;SDS011;17847;31.524;74.366;2022-10-31T01:19:21;209.27;;;132.63;;
31224;SDS011;17847;31.524;74.366;2022-10-31T01:22:17;204.45;;;130.88;;
31224;SDS011;17847;31.524;74.366;2022-10-31T01:24:52;208.57;;;130.18;;
31224;SDS011;17847;31.524;74.366;2022-10-31T01:27:48;205.63;;;132.43;;
31224;SDS011;17847;31.524;74.366;2022-10-31T01:30:23;197.55;;;127.22;;
31224;SDS011;17847;31.524;74.366;2022-10-31T01:33:19;205.60;;;130.07;;
31224;SDS011;17847;31.524;74.366;2022-10-31T01:36:24;208.73;;;131.95;;
31224;SDS011;17847;31.524;74.366;2022-10-31T01:39:12;212.20;;;131.07;;
31224;SDS011;17847;31.524;74.366;2022-10-31T01:42:02;215.45;;;133.27;;
31224;SDS011;17847;31.524;74.366;2022-10-31T01:45:18;218.05;;;127.50;;
31224;SDS011;17847;31.524;74.366;2022-10-31T01:48:12;205.13;;;127.53;;
31224;SDS011;17847;31.524;74.366;2022-10-31T01:50:56;210.15;;;130.32;;
31224;SDS011;17847;31.524;74.366;2022-10-31T01:53:46;209.05;;;128.88;;
31224;SDS011;17847;31.524;74.366;2022-10-31T01:56:29;203.43;;;126.13;;
31224;SDS011;17847;31.524;74.366;2022-10-31T01:59:22;201.07;;;124.90;;
31224;SDS011;17847;31.524;74.366;2022-10-31T02:02:08;209.65;;;129.95;;
31224;SDS011;17847;31.524;74.366;2022-10-31T02:05:05;199.75;;;127.43;;
31224;SDS011;17847;31.524;74.366;2022-10-31T02:07:57;209.40;;;126.30;;
31224;SDS011;17847;31.524;74.366;2022-10-31T02:10:57;198.07;;;123.78;;
31224;SDS011;17847;31.524;74.366;2022-10-31T02:13:41;206.77;;;127.30;;
31224;SDS011;17847;31.524;74.366;2022-10-31T02:16:30;206.38;;;125.68;;
31224;SDS011;17847;31.524;74.366;2022-10-31T02:19:13;199.85;;;126.72;;
31224;SDS011;17847;31.524;74.366;2022-10-31T02:25:25;199.70;;;124.80;;
31224;SDS011;17847;31.524;74.366;2022-10-31T02:37:51;203.70;;;124.78;;
31224;SDS011;17847;31.524;74.366;2022-10-31T02:41:06;205.07;;;126.53;;
31224;SDS011;17847;31.524;74.366;2022-10-31T02:44:26;208.57;;;123.88;;
31224;SDS011;17847;31.524;74.366;2022-10-31T02:47:28;206.32;;;124.32;;
31224;SDS011;17847;31.524;74.366;2022-10-31T02:50:18;191.23;;;122.75;;
31224;SDS011;17847;31.524;74.366;2022-10-31T02:53:16;198.40;;;122.50;;
31224;SDS011;17847;31.524;74.366;2022-10-31T02:56:00;208.90;;;124.25;;
31224;SDS011;17847;31.524;74.366;2022-10-31T02:59:02;204.15;;;123.35;;
31224;SDS011;17847;31.524;74.366;2022-10-31T03:10:56;224.00;;;133.10;;
31224;SDS011;17847;31.524;74.366;2022-10-31T03:13:49;219.10;;;132.20;;
31224;SDS011;17847;31.524;74.366;2022-10-31T03:16:52;214.32;;;132.52;;
31224;SDS011;17847;31.524;74.366;2022-10-31T03:19:42;236.00;;;139.18;;
31224;SDS011;17847;31.524;74.366;2022-10-31T03:22:37;249.70;;;137.02;;
31224;SDS011;17847;31.524;74.366;2022-10-31T03:25:24;227.88;;;135.65;;
31224;SDS011;17847;31.524;74.366;2022-10-31T03:30:58;234.95;;;134.07;;
31224;SDS011;17847;31.524;74.366;2022-10-31T03:33:52;236.02;;;142.90;;
31224;SDS011;17847;31.524;74.366;2022-10-31T03:36:38;239.98;;;143.13;;
31224;SDS011;17847;31.524;74.366;2022-10-31T03:39:29;239.80;;;143.60;;
31224;SDS011;17847;31.524;74.366;2022-10-31T03:42:16;234.68;;;143.57;;
31224;SDS011;17847;31.524;74.366;2022-10-31T03:45:16;247.30;;;143.18;;
31224;SDS011;17847;31.524;74.366;2022-10-31T03:48:04;245.85;;;144.85;;
31224;SDS011;17847;31.524;74.366;2022-10-31T03:51:06;243.10;;;146.40;;
31224;SDS011;17847;31.524;74.366;2022-10-31T03:54:16;238.35;;;147.57;;
31224;SDS011;17847;31.524;74.366;2022-10-31T03:57:44;240.43;;;146.02;;
31224;SDS011;17847;31.524;74.366;2022-10-31T04:00:30;247.43;;;146.65;;
31224;SDS011;17847;31.524;74.366;2022-10-31T04:03:25;247.55;;;146.82;;
31224;SDS011;17847;31.524;74.366;2022-10-31T04:06:12;246.20;;;148.95;;
31224;SDS011;17847;31.524;74.366;2022-10-31T04:09:06;245.80;;;150.10;;
31224;SDS011;17847;31.524;74.366;2022-10-31T04:11:51;237.90;;;148.07;;
31224;SDS011;17847;31.524;74.366;2022-10-31T04:15:04;231.63;;;144.13;;
31224;SDS011;17847;31.524;74.366;2022-10-31T04:17:49;242.30;;;145.88;;
31224;SDS011;17847;31.524;74.366;2022-10-31T04:20:43;236.43;;;147.05;;
31224;SDS011;17847;31.524;74.366;2022-10-31T04:23:26;232.93;;;148.75;;
31224;SDS011;17847;31.524;74.366;2022-10-31T04:26:30;234.35;;;147.73;;
31224;SDS011;17847;31.524;74.366;2022-10-31T04:29:12;225.73;;;147.27;;
31224;SDS011;17847;31.524;74.366;2022-10-31T04:32:01;233.88;;;149.73;;
31224;SDS011;17847;31.524;74.366;2022-10-31T04:34:58;238.63;;;150.27;;
31224;SDS011;17847;31.524;74.366;2022-10-31T04:37:40;249.43;;;147.45;;
31224;SDS011;17847;31.524;74.366;2022-10-31T04:40:29;259.17;;;152.68;;
31224;SDS011;17847;31.524;74.366;2022-10-31T04:43:07;235.48;;;151.13;;
31224;SDS011;17847;31.524;74.366;2022-10-31T04:46:05;231.13;;;144.52;;
31224;SDS011;17847;31.524;74.366;2022-10-31T04:48:41;235.00;;;143.70;;
31224;SDS011;17847;31.524;74.366;2022-10-31T04:51:36;225.05;;;142.48;;
31224;SDS011;17847;31.524;74.366;2022-10-31T04:54:18;244.85;;;144.88;;
31224;SDS011;17847;31.524;74.366;2022-10-31T04:57:07;229.38;;;141.20;;
31224;SDS011;17847;31.524;74.366;2022-10-31T04:59:49;230.30;;;143.60;;
31224;SDS011;17847;31.524;74.366;2022-10-31T05:02:46;226.13;;;139.75;;
31224;SDS011;17847;31.524;74.366;2022-10-31T05:05:29;219.43;;;142.45;;
31224;SDS011;17847;31.524;74.366;2022-10-31T05:08:19;225.80;;;145.90;;
31224;SDS011;17847;31.524;74.366;2022-10-31T05:11:04;225.07;;;144.05;;
31224;SDS011;17847;31.524;74.366;2022-10-31T05:13:54;216.35;;;140.63;;
31224;SDS011;17847;31.524;74.366;2022-10-31T05:16:56;215.88;;;140.32;;
31224;SDS011;17847;31.524;74.366;2022-10-31T05:20:11;235.02;;;142.43;;
31224;SDS011;17847;31.524;74.366;2022-10-31T05:23:26;218.65;;;140.13;;
31224;SDS011;17847;31.524;74.366;2022-10-31T05:26:15;225.88;;;141.20;;
31224;SDS011;17847;31.524;74.366;2022-10-31T05:28:58;227.82;;;140.68;;
31224;SDS011;17847;31.524;74.366;2022-10-31T05:31:47;227.98;;;143.23;;
31224;SDS011;17847;31.524;74.366;2022-10-31T05:34:56;215.13;;;140.85;;
31224;SDS011;17847;31.524;74.366;2022-10-31T05:38:08;217.65;;;139.52;;
31224;SDS011;17847;31.524;74.366;2022-10-31T05:40:58;200.02;;;136.45;;
31224;SDS011;17847;31.524;74.366;2022-10-31T05:43:38;218.35;;;137.23;;
31224;SDS011;17847;31.524;74.366;2022-10-31T05:46:36;213.30;;;137.68;;
31224;SDS011;17847;31.524;74.366;2022-10-31T05:49:20;209.15;;;135.77;;
31224;SDS011;17847;31.524;74.366;2022-10-31T05:52:35;222.45;;;135.25;;
31224;SDS011;17847;31.524;74.366;2022-10-31T05:55:24;213.93;;;137.95;;
31224;SDS011;17847;31.524;74.366;2022-10-31T05:58:25;200.73;;;130.27;;
31224;SDS011;17847;31.524;74.366;2022-10-31T06:01:07;210.27;;;132.57;;
31224;SDS011;17847;31.524;74.366;2022-10-31T06:03:56;205.80;;;133.00;;
31224;SDS011;17847;31.524;74.366;2022-10-31T06:06:38;204.10;;;129.27;;
31224;SDS011;17847;31.524;74.366;2022-10-31T06:09:34;209.40;;;133.70;;
31224;SDS011;17847;31.524;74.366;2022-10-31T06:12:19;199.82;;;128.95;;
31224;SDS011;17847;31.524;74.366;2022-10-31T06:15:36;205.57;;;131.40;;
31224;SDS011;17847;31.524;74.366;2022-10-31T06:18:12;195.90;;;129.60;;
31224;SDS011;17847;31.524;74.366;2022-10-31T06:21:09;209.48;;;130.45;;
31224;SDS011;17847;31.524;74.366;2022-10-31T06:23:50;208.85;;;135.38;;
31224;SDS011;17847;31.524;74.366;2022-10-31T06:27:01;207.77;;;128.85;;
31224;SDS011;17847;31.524;74.366;2022-10-31T06:29:43;198.02;;;129.32;;
31224;SDS011;17847;31.524;74.366;2022-10-31T06:32:41;193.45;;;129.40;;
31224;SDS011;17847;31.524;74.366;2022-10-31T06:35:23;202.52;;;127.82;;
31224;SDS011;17847;31.524;74.366;2022-10-31T06:38:19;192.90;;;124.65;;
31224;SDS011;17847;31.524;74.366;2022-10-31T06:41:05;194.60;;;126.53;;
31224;SDS011;17847;31.524;74.366;2022-10-31T06:43:55;203.00;;;128.98;;
31224;SDS011;17847;31.524;74.366;2022-10-31T06:46:50;198.18;;;126.07;;
31224;SDS011;17847;31.524;74.366;2022-10-31T06:50:09;194.35;;;125.78;;
31224;SDS011;17847;31.524;74.366;2022-10-31T06:52:56;188.57;;;125.40;;
31224;SDS011;17847;31.524;74.366;2022-10-31T06:55:53;194.55;;;123.28;;
31224;SDS011;17847;31.524;74.366;2022-10-31T06:58:35;189.45;;;124.72;;
31224;SDS011;17847;31.524;74.366;2022-10-31T07:01:51;197.65;;;128.68;;
31224;SDS011;17847;31.524;74.366;2022-10-31T07:04:26;179.80;;;122.82;;
31224;SDS011;17847;31.524;74.366;2022-10-31T07:07:24;185.90;;;124.57;;
31224;SDS011;17847;31.524;74.366;2022-10-31T07:10:06;180.70;;;121.72;;
31224;SDS011;17847;31.524;74.366;2022-10-31T07:13:05;185.07;;;120.55;;
31224;SDS011;17847;31.524;74.366;2022-10-31T07:15:53;178.60;;;116.97;;
31224;SDS011;17847;31.524;74.366;2022-10-31T07:18:43;172.52;;;118.90;;
31224;SDS011;17847;31.524;74.366;2022-10-31T07:21:28;192.82;;;125.80;;
31224;SDS011;17847;31.524;74.366;2022-10-31T07:24:24;202.05;;;125.80;;
31224;SDS011;17847;31.524;74.366;2022-10-31T07:27:28;181.20;;;121.65;;
31224;SDS011;17847;31.524;74.366;2022-10-31T07:30:23;179.07;;;116.88;;
31224;SDS011;17847;31.524;74.366;2022-10-31T07:32:59;183.30;;;114.45;;
31224;SDS011;17847;31.524;74.366;2022-10-31T07:36:12;175.23;;;113.90;;
31224;SDS011;17847;31.524;74.366;2022-10-31T07:39:00;159.38;;;103.55;;
31224;SDS011;17847;31.524;74.366;2022-10-31T07:41:49;137.65;;;90.55;;
31224;SDS011;17847;31.524;74.366;2022-10-31T07:44:32;124.57;;;81.15;;
31224;SDS011;17847;31.524;74.366;2022-10-31T07:47:40;123.15;;;81.75;;
31224;SDS011;17847;31.524;74.366;2022-10-31T07:50:46;129.32;;;84.50;;
31224;SDS011;17847;31.524;74.366;2022-10-31T07:54:18;108.95;;;70.32;;
31224;SDS011;17847;31.524;74.366;2022-10-31T07:56:53;132.50;;;82.38;;
31224;SDS011;17847;31.524;74.366;2022-10-31T07:59:49;147.23;;;96.25;;
31224;SDS011;17847;31.524;74.366;2022-10-31T08:02:40;159.02;;;103.93;;
31224;SDS011;17847;31.524;74.366;2022-10-31T08:06:05;178.13;;;102.13;;
31224;SDS011;17847;31.524;74.366;2022-10-31T08:08:56;143.07;;;96.93;;
31224;SDS011;17847;31.524;74.366;2022-10-31T08:11:47;160.50;;;102.88;;
31224;SDS011;17847;31.524;74.366;2022-10-31T08:14:32;160.93;;;99.18;;
31224;SDS011;17847;31.524;74.366;2022-10-31T08:17:27;155.48;;;95.57;;
31224;SDS011;17847;31.524;74.366;2022-10-31T08:20:04;138.65;;;87.63;;
31224;SDS011;17847;31.524;74.366;2022-10-31T08:23:03;143.10;;;89.78;;
31224;SDS011;17847;31.524;74.366;2022-10-31T08:25:41;145.05;;;94.45;;
31224;SDS011;17847;31.524;74.366;2022-10-31T08:28:37;149.80;;;90.40;;
31224;SDS011;17847;31.524;74.366;2022-10-31T08:31:13;138.03;;;90.77;;
31224;SDS011;17847;31.524;74.366;2022-10-31T08:34:32;138.13;;;84.35;;
31224;SDS011;17847;31.524;74.366;2022-10-31T08:37:51;128.68;;;83.70;;
31224;SDS011;17847;31.524;74.366;2022-10-31T08:40:37;135.85;;;80.82;;
31224;SDS011;17847;31.524;74.366;2022-10-31T08:43:26;127.13;;;81.18;;
31224;SDS011;17847;31.524;74.366;2022-10-31T08:46:08;123.97;;;78.63;;
31224;SDS011;17847;31.524;74.366;2022-10-31T08:49:04;121.85;;;74.72;;
31224;SDS011;17847;31.524;74.366;2022-10-31T08:51:49;123.20;;;79.63;;
31224;SDS011;17847;31.524;74.366;2022-10-31T08:54:43;140.55;;;79.68;;
31224;SDS011;17847;31.524;74.366;2022-10-31T08:58:00;122.97;;;81.07;;
31224;SDS011;17847;31.524;74.366;2022-10-31T09:00:55;129.07;;;79.97;;
31224;SDS011;17847;31.524;74.366;2022-10-31T09:03:42;128.10;;;79.68;;
31224;SDS011;17847;31.524;74.366;2022-10-31T09:06:32;130.00;;;77.40;;
31224;SDS011;17847;31.524;74.366;2022-10-31T09:09:27;125.43;;;74.88;;
31224;SDS011;17847;31.524;74.366;2022-10-31T09:12:25;123.10;;;78.63;;
31224;SDS011;17847;31.524;74.366;2022-10-31T09:15:18;126.22;;;76.22;;
31224;SDS011;17847;31.524;74.366;2022-10-31T09:18:27;130.93;;;77.40;;
31224;SDS011;17847;31.524;74.366;2022-10-31T09:21:02;138.52;;;79.57;;
31224;SDS011;17847;31.524;74.366;2022-10-31T09:23:59;122.00;;;77.75;;
31224;SDS011;17847;31.524;74.366;2022-10-31T09:26:41;122.22;;;78.25;;
31224;SDS011;17847;31.524;74.366;2022-10-31T09:29:34;130.13;;;81.13;;
31224;SDS011;17847;31.524;74.366;2022-10-31T09:32:12;131.85;;;84.20;;
31224;SDS011;17847;31.524;74.366;2022-10-31T09:35:09;133.55;;;83.45;;
31224;SDS011;17847;31.524;74.366;2022-10-31T09:37:57;159.40;;;85.15;;
31224;SDS011;17847;31.524;74.366;2022-10-31T09:41:36;136.52;;;86.38;;
31224;SDS011;17847;31.524;74.366;2022-10-31T09:47:17;132.15;;;87.53;;
31224;SDS011;17847;31.524;74.366;2022-10-31T09:50:31;156.77;;;93.78;;
31224;SDS011;17847;31.524;74.366;2022-10-31T09:54:05;148.90;;;88.13;;
31224;SDS011;17847;31.524;74.366;2022-10-31T09:56:49;146.27;;;87.00;;
31224;SDS011;17847;31.524;74.366;2022-10-31T09:59:39;135.25;;;85.47;;
31224;SDS011;17847;31.524;74.366;2022-10-31T10:02:35;146.27;;;87.63;;
31224;SDS011;17847;31.524;74.366;2022-10-31T10:05:43;132.07;;;84.00;;
31224;SDS011;17847;31.524;74.366;2022-10-31T10:08:53;138.20;;;80.47;;
31224;SDS011;17847;31.524;74.366;2022-10-31T10:12:25;134.65;;;78.45;;
31224;SDS011;17847;31.524;74.366;2022-10-31T10:22:25;125.40;;;76.78;;
31224;SDS011;17847;31.524;74.366;2022-10-31T10:36:35;122.18;;;74.40;;
31224;SDS011;17847;31.524;74.366;2022-10-31T10:39:35;120.13;;;73.07;;
31224;SDS011;17847;31.524;74.366;2022-10-31T10:42:30;112.25;;;72.05;;
31224;SDS011;17847;31.524;74.366;2022-10-31T10:45:38;124.00;;;72.15;;
31224;SDS011;17847;31.524;74.366;2022-10-31T10:51:38;105.88;;;66.85;;
31224;SDS011;17847;31.524;74.366;2022-10-31T10:54:46;109.03;;;71.10;;
31224;SDS011;17847;31.524;74.366;2022-10-31T10:57:53;108.97;;;68.82;;
31224;SDS011;17847;31.524;74.366;2022-10-31T11:00:45;114.03;;;73.13;;
31224;SDS011;17847;31.524;74.366;2022-10-31T11:03:35;128.10;;;78.70;;
31224;SDS011;17847;31.524;74.366;2022-10-31T11:06:18;138.13;;;82.88;;
31224;SDS011;17847;31.524;74.366;2022-10-31T11:09:10;148.45;;;89.18;;
31224;SDS011;17847;31.524;74.366;2022-10-31T11:11:52;144.52;;;94.35;;
31224;SDS011;17847;31.524;74.366;2022-10-31T11:14:50;157.82;;;96.03;;
31224;SDS011;17847;31.524;74.366;2022-10-31T11:17:39;161.55;;;96.72;;
31224;SDS011;17847;31.524;74.366;2022-10-31T11:20:35;150.88;;;98.60;;
31224;SDS011;17847;31.524;74.366;2022-10-31T11:23:18;162.70;;;100.50;;
31224;SDS011;17847;31.524;74.366;2022-10-31T11:26:20;164.50;;;101.10;;
31224;SDS011;17847;31.524;74.366;2022-10-31T11:29:03;163.20;;;100.93;;
31224;SDS011;17847;31.524;74.366;2022-10-31T11:31:56;172.63;;;102.80;;
31224;SDS011;17847;31.524;74.366;2022-10-31T11:34:35;176.65;;;102.88;;
31224;SDS011;17847;31.524;74.366;2022-10-31T11:37:40;173.63;;;102.22;;
31224;SDS011;17847;31.524;74.366;2022-10-31T11:40:26;169.32;;;104.28;;
31224;SDS011;17847;31.524;74.366;2022-10-31T11:43:22;166.02;;;106.22;;
31224;SDS011;17847;31.524;74.366;2022-10-31T11:46:11;188.52;;;107.18;;
31224;SDS011;17847;31.524;74.366;2022-10-31T11:49:10;169.13;;;101.53;;
31224;SDS011;17847;31.524;74.366;2022-10-31T11:51:58;167.55;;;102.55;;
31224;SDS011;17847;31.524;74.366;2022-10-31T11:54:58;169.05;;;107.00;;
31224;SDS011;17847;31.524;74.366;2022-10-31T11:57:55;162.70;;;102.65;;
31224;SDS011;17847;31.524;74.366;2022-10-31T12:00:48;174.77;;;103.63;;
31224;SDS011;17847;31.524;74.366;2022-10-31T12:06:50;184.85;;;109.25;;
31224;SDS011;17847;31.524;74.366;2022-10-31T12:09:35;168.32;;;105.15;;
31224;SDS011;17847;31.524;74.366;2022-10-31T12:28:12;184.38;;;109.80;;
31224;SDS011;17847;31.524;74.366;2022-10-31T12:37:02;194.05;;;111.20;;
31224;SDS011;17847;31.524;74.366;2022-10-31T12:46:31;182.25;;;108.95;;
31224;SDS011;17847;31.524;74.366;2022-10-31T12:49:44;195.27;;;109.28;;
31224;SDS011;17847;31.524;74.366;2022-10-31T12:55:48;182.13;;;110.20;;
31224;SDS011;17847;31.524;74.366;2022-10-31T12:58:35;195.35;;;110.82;;
31224;SDS011;17847;31.524;74.366;2022-10-31T13:01:55;190.30;;;112.82;;
31224;SDS011;17847;31.524;74.366;2022-10-31T13:04:53;186.15;;;111.97;;
31224;SDS011;17847;31.524;74.366;2022-10-31T13:10:46;197.63;;;115.05;;
31224;SDS011;17847;31.524;74.366;2022-10-31T13:13:57;188.82;;;112.53;;
31224;SDS011;17847;31.524;74.366;2022-10-31T13:16:48;178.90;;;110.40;;
31224;SDS011;17847;31.524;74.366;2022-10-31T13:19:39;190.13;;;116.05;;
31224;SDS011;17847;31.524;74.366;2022-10-31T13:22:29;193.07;;;114.53;;
31224;SDS011;17847;31.524;74.366;2022-10-31T13:25:31;199.13;;;119.93;;
31224;SDS011;17847;31.524;74.366;2022-10-31T13:31:40;212.77;;;125.63;;
31224;SDS011;17847;31.524;74.366;2022-10-31T13:34:52;218.32;;;133.05;;
31224;SDS011;17847;31.524;74.366;2022-10-31T13:37:39;223.73;;;132.63;;
31224;SDS011;17847;31.524;74.366;2022-10-31T13:40:38;231.27;;;135.27;;
31224;SDS011;17847;31.524;74.366;2022-10-31T13:46:40;221.13;;;135.95;;
31224;SDS011;17847;31.524;74.366;2022-10-31T13:52:23;204.15;;;135.02;;
31224;SDS011;17847;31.524;74.366;2022-10-31T13:55:07;219.85;;;137.82;;
31224;SDS011;17847;31.524;74.366;2022-10-31T13:58:40;213.20;;;136.52;;
31224;SDS011;17847;31.524;74.366;2022-10-31T14:01:45;222.80;;;139.15;;
31224;SDS011;17847;31.524;74.366;2022-10-31T14:04:53;218.30;;;138.50;;
31224;SDS011;17847;31.524;74.366;2022-10-31T14:07:41;223.50;;;139.50;;
31224;SDS011;17847;31.524;74.366;2022-10-31T14:10:39;235.98;;;143.55;;
31224;SDS011;17847;31.524;74.366;2022-10-31T14:13:26;234.48;;;144.40;;
31224;SDS011;17847;31.524;74.366;2022-10-31T14:16:26;228.10;;;143.85;;
31224;SDS011;17847;31.524;74.366;2022-10-31T14:19:07;233.48;;;144.40;;
31224;SDS011;17847;31.524;74.366;2022-10-31T14:22:20;227.75;;;144.45;;
31224;SDS011;17847;31.524;74.366;2022-10-31T14:24:57;230.15;;;143.98;;
31224;SDS011;17847;31.524;74.366;2022-10-31T14:27:53;222.98;;;142.68;;
31224;SDS011;17847;31.524;74.366;2022-10-31T14:30:29;238.02;;;143.50;;
31224;SDS011;17847;31.524;74.366;2022-10-31T14:33:29;218.73;;;143.13;;
31224;SDS011;17847;31.524;74.366;2022-10-31T14:52:17;230.60;;;142.70;;
31224;SDS011;17847;31.524;74.366;2022-10-31T14:55:07;229.70;;;143.30;;
31224;SDS011;17847;31.524;74.366;2022-10-31T14:57:59;232.10;;;144.40;;
31224;SDS011;17847;31.524;74.366;2022-10-31T15:00:58;222.27;;;139.85;;
31224;SDS011;17847;31.524;74.366;2022-10-31T15:03:42;221.60;;;142.70;;
31224;SDS011;17847;31.524;74.366;2022-10-31T15:07:11;223.15;;;143.55;;
31224;SDS011;17847;31.524;74.366;2022-10-31T15:10:21;213.85;;;140.18;;
31224;SDS011;17847;31.524;74.366;2022-10-31T15:13:20;213.82;;;136.98;;
31224;SDS011;17847;31.524;74.366;2022-10-31T15:15:56;213.00;;;139.95;;
31224;SDS011;17847;31.524;74.366;2022-10-31T15:18:56;219.02;;;137.98;;
31224;SDS011;17847;31.524;74.366;2022-10-31T15:21:40;204.07;;;134.18;;
31224;SDS011;17847;31.524;74.366;2022-10-31T15:24:39;204.00;;;133.70;;
31224;SDS011;17847;31.524;74.366;2022-10-31T15:27:17;210.10;;;131.00;;
31224;SDS011;17847;31.524;74.366;2022-10-31T15:30:17;207.85;;;128.70;;
31224;SDS011;17847;31.524;74.366;2022-10-31T15:33:02;208.88;;;131.68;;
31224;SDS011;17847;31.524;74.366;2022-10-31T15:36:04;201.95;;;128.45;;
31224;SDS011;17847;31.524;74.366;2022-10-31T15:38:48;215.32;;;132.23;;
31224;SDS011;17847;31.524;74.366;2022-10-31T15:41:51;207.43;;;130.63;;
31224;SDS011;17847;31.524;74.366;2022-10-31T15:44:36;197.50;;;127.68;;
31224;SDS011;17847;31.524;74.366;2022-10-31T15:47:29;209.95;;;128.57;;
31224;SDS011;17847;31.524;74.366;2022-10-31T15:50:21;197.00;;;127.20;;
31224;SDS011;17847;31.524;74.366;2022-10-31T15:53:35;199.18;;;127.40;;
31224;SDS011;17847;31.524;74.366;2022-10-31T15:56:30;209.65;;;127.05;;
31224;SDS011;17847;31.524;74.366;2022-10-31T15:59:21;206.45;;;129.73;;
31224;SDS011;17847;31.524;74.366;2022-10-31T16:02:09;195.02;;;127.22;;
31224;SDS011;17847;31.524;74.366;2022-10-31T16:05:00;194.45;;;126.35;;
31224;SDS011;17847;31.524;74.366;2022-10-31T16:07:50;209.10;;;128.77;;
31224;SDS011;17847;31.524;74.366;2022-10-31T16:10:40;197.40;;;128.05;;
31224;SDS011;17847;31.524;74.366;2022-10-31T16:13:37;206.60;;;128.52;;
31224;SDS011;17847;31.524;74.366;2022-10-31T16:16:29;201.85;;;130.10;;
31224;SDS011;17847;31.524;74.366;2022-10-31T16:19:22;213.05;;;128.48;;
31224;SDS011;17847;31.524;74.366;2022-10-31T16:22:26;211.50;;;132.02;;
31224;SDS011;17847;31.524;74.366;2022-10-31T16:28:03;213.45;;;132.95;;
31224;SDS011;17847;31.524;74.366;2022-10-31T16:30:59;224.15;;;133.35;;
31224;SDS011;17847;31.524;74.366;2022-10-31T16:34:12;216.77;;;134.65;;
31224;SDS011;17847;31.524;74.366;2022-10-31T16:37:01;208.57;;;135.20;;
31224;SDS011;17847;31.524;74.366;2022-10-31T16:39:50;210.93;;;133.70;;
31224;SDS011;17847;31.524;74.366;2022-10-31T16:42:32;216.95;;;135.10;;
31224;SDS011;17847;31.524;74.366;2022-10-31T16:45:22;218.95;;;137.35;;
31224;SDS011;17847;31.524;74.366;2022-10-31T16:48:08;220.05;;;133.55;;
31224;SDS011;17847;31.524;74.366;2022-10-31T16:51:00;219.38;;;135.00;;
31224;SDS011;17847;31.524;74.366;2022-10-31T16:53:43;219.70;;;133.77;;
31224;SDS011;17847;31.524;74.366;2022-10-31T16:56:39;205.88;;;134.70;;
31224;SDS011;17847;31.524;74.366;2022-10-31T16:59:22;215.38;;;132.50;;
31224;SDS011;17847;31.524;74.366;2022-10-31T17:02:13;213.18;;;135.48;;
31224;SDS011;17847;31.524;74.366;2022-10-31T17:04:57;216.73;;;132.93;;
31224;SDS011;17847;31.524;74.366;2022-10-31T17:07:46;216.50;;;133.90;;
31224;SDS011;17847;31.524;74.366;2022-10-31T17:10:22;208.95;;;137.02;;
31224;SDS011;17847;31.524;74.366;2022-10-31T17:13:20;210.40;;;136.55;;
31224;SDS011;17847;31.524;74.366;2022-10-31T17:16:09;207.07;;;134.57;;
31224;SDS011;17847;31.524;74.366;2022-10-31T17:19:02;213.38;;;138.80;;
31224;SDS011;17847;31.524;74.366;2022-10-31T17:21:38;215.88;;;139.05;;
31224;SDS011;17847;31.524;74.366;2022-10-31T17:24:35;211.80;;;138.10;;
31224;SDS011;17847;31.524;74.366;2022-10-31T17:27:10;225.38;;;138.90;;
31224;SDS011;17847;31.524;74.366;2022-10-31T17:30:07;213.60;;;140.60;;
31224;SDS011;17847;31.524;74.366;2022-10-31T17:32:44;219.57;;;141.02;;
31224;SDS011;17847;31.524;74.366;2022-10-31T17:35:40;224.10;;;142.98;;
31224;SDS011;17847;31.524;74.366;2022-10-31T17:38:23;216.88;;;139.73;;
31224;SDS011;17847;31.524;74.366;2022-10-31T17:41:13;227.63;;;141.63;;
31224;SDS011;17847;31.524;74.366;2022-10-31T17:43:56;220.35;;;142.10;;
31224;SDS011;17847;31.524;74.366;2022-10-31T17:46:46;228.82;;;142.50;;
31224;SDS011;17847;31.524;74.366;2022-10-31T17:49:28;232.15;;;145.20;;
31224;SDS011;17847;31.524;74.366;2022-10-31T17:52:24;236.48;;;147.57;;
31224;SDS011;17847;31.524;74.366;2022-10-31T17:55:06;227.63;;;149.02;;
31224;SDS011;17847;31.524;74.366;2022-10-31T17:57:56;243.70;;;153.48;;
31224;SDS011;17847;31.524;74.366;2022-10-31T18:00:38;249.73;;;155.93;;
31224;SDS011;17847;31.524;74.366;2022-10-31T18:03:30;246.70;;;152.73;;
31224;SDS011;17847;31.524;74.366;2022-10-31T18:06:13;233.77;;;148.65;;